Time;durP1;ratioP1;P1;durP2;ratioP2;P2;SDS_P1;SDS_P2;PMS_P1;PMS_P2;Temp;Humidity;BMP_temperature;BMP_pressure;BME280_temperature;BME280_humidity;BME280_pressure;Samples;Min_cycle;Max_cycle;Signal;HPM_P1;HPM_P2
2022/12/21 00:01:23;;;;;;;39.28;18.38;;;;;;;0.49;100.00;100421.00;5074034;28;20028;-75
2022/12/21 00:03:54;;;;;;;41.22;19.80;;;;;;;0.50;100.00;100403.72;5074562;28;20035;-75
2022/12/21 00:06:21;;;;;;;47.58;18.80;;;;;;;0.44;100.00;100408.19;5078698;28;20081;-76
2022/12/21 00:08:48;;;;;;;40.10;17.05;;;;;;;0.50;100.00;100417.78;5089436;28;20032;-76
2022/12/21 00:11:14;;;;;;;39.20;19.13;;;;;;;0.47;100.00;100424.22;5053392;28;20376;-76
2022/12/21 00:13:40;;;;;;;47.28;20.38;;;;;;;0.47;100.00;100420.59;5043027;28;20094;-75
2022/12/21 00:16:10;;;;;;;49.85;20.33;;;;;;;0.45;100.00;100437.91;5077128;28;20465;-77
2022/12/21 00:18:36;;;;;;;42.13;19.05;;;;;;;0.45;100.00;100437.09;5076639;28;20024;-76
2022/12/21 00:21:08;;;;;;;40.60;18.10;;;;;;;0.41;100.00;100425.91;5076247;28;20114;-76
2022/12/21 00:23:33;;;;;;;;;;;;;;;0.35;100.00;100429.59;5058583;28;20053;-75
2022/12/21 00:26:00;;;;;;;42.95;19.05;;;;;;;0.28;100.00;100416.44;5076082;28;19995;-76
2022/12/21 00:28:26;;;;;;;39.70;17.92;;;;;;;0.27;100.00;100414.81;5075751;28;20476;-76
2022/12/21 00:30:51;;;;;;;43.67;18.92;;;;;;;0.25;100.00;100410.84;5075770;28;20095;-76
2022/12/21 00:33:17;;;;;;;44.22;18.90;;;;;;;0.18;100.00;100406.91;5075915;28;20453;-77
2022/12/21 00:35:49;;;;;;;38.88;18.23;;;;;;;0.20;100.00;100408.50;5076629;28;20017;-75
2022/12/21 00:38:14;;;;;;;40.20;17.88;;;;;;;0.19;100.00;100399.28;5076866;28;20016;-76
2022/12/21 00:40:40;;;;;;;44.33;18.55;;;;;;;0.22;100.00;100403.28;5078788;28;20028;-77
2022/12/21 00:43:05;;;;;;;40.30;17.40;;;;;;;0.25;100.00;100403.22;5081341;28;20048;-77
2022/12/21 00:45:30;;;;;;;47.22;20.48;;;;;;;0.27;100.00;100397.19;5076625;28;20385;-77
2022/12/21 00:47:56;;;;;;;42.70;19.38;;;;;;;0.21;100.00;100384.81;5074047;28;20032;-76
2022/12/21 00:50:21;;;;;;;43.38;18.10;;;;;;;0.20;100.00;100397.28;5055988;28;20503;-76
2022/12/21 00:52:47;;;;;;;46.03;19.05;;;;;;;0.17;100.00;100405.31;5038685;28;20083;-77
2022/12/21 00:55:12;;;;;;;47.65;19.38;;;;;;;0.15;100.00;100399.34;5055983;28;20496;-76
2022/12/21 00:57:37;;;;;;;38.97;18.05;;;;;;;0.19;100.00;100410.53;5057333;28;20017;-76
2022/12/21 01:00:03;;;;;;;43.13;18.65;;;;;;;0.15;100.00;100419.00;5073248;28;20025;-76
2022/12/21 01:02:29;;;;;;;42.85;18.80;;;;;;;0.11;100.00;100428.69;5073700;28;20388;-75
2022/12/21 01:04:54;;;;;;;41.75;18.98;;;;;;;0.08;100.00;100446.34;5075379;28;20375;-76
2022/12/21 01:07:20;;;;;;;39.45;18.30;;;;;;;0.08;100.00;100452.78;5076160;28;20439;-75
2022/12/21 01:09:45;;;;;;;43.53;19.85;;;;;;;0.12;100.00;100435.91;5076155;28;20077;-75
2022/12/21 01:12:10;;;;;;;41.00;17.00;;;;;;;0.13;100.00;100417.81;5056341;28;20020;-76
2022/12/21 01:14:36;;;;;;;43.13;18.58;;;;;;;0.15;100.00;100404.16;5058996;28;20025;-76
2022/12/21 01:17:01;;;;;;;45.10;18.15;;;;;;;0.16;100.00;100414.19;5076112;28;20013;-76
2022/12/21 01:19:27;;;;;;;42.05;17.98;;;;;;;0.15;100.00;100415.38;5058359;28;20028;-76
2022/12/21 01:21:52;;;;;;;46.90;18.70;;;;;;;0.11;100.00;100412.63;5075370;28;20031;-76
2022/12/21 01:24:17;;;;;;;39.13;16.98;;;;;;;0.15;100.00;100430.22;5075359;28;20074;-76
2022/12/21 01:26:43;;;;;;;41.40;16.63;;;;;;;0.16;100.00;100420.59;5076644;28;20046;-75
2022/12/21 01:29:12;;;;;;;43.40;18.70;;;;;;;0.13;100.00;100407.38;5075639;28;20537;-75
2022/12/21 01:31:37;;;;;;;39.70;17.65;;;;;;;0.08;100.00;100409.84;5075848;28;20028;-77
2022/12/21 01:34:03;;;;;;;45.05;18.02;;;;;;;0.05;100.00;100394.63;5075787;28;20024;-75
2022/12/21 01:36:28;;;;;;;38.03;18.00;;;;;;;0.05;100.00;100388.22;5076744;28;20025;-77
2022/12/21 01:38:54;;;;;;;45.05;20.52;;;;;;;0.03;100.00;100382.22;5075295;28;20063;-75
2022/12/21 01:41:25;;;;;;;39.85;16.77;;;;;;;-0.00;100.00;100371.81;5057808;28;20021;-76
2022/12/21 01:44:01;;;;;;;39.25;17.45;;;;;;;-0.09;100.00;100380.75;5075760;28;20047;-77
2022/12/21 01:46:34;;;;;;;37.78;16.42;;;;;;;-0.08;100.00;100382.34;5077739;28;20036;-76
2022/12/21 01:49:16;;;;;;;42.85;18.50;;;;;;;-0.11;100.00;100365.53;5045068;28;20056;-75
2022/12/21 01:51:43;;;;;;;41.90;16.65;;;;;;;-0.12;100.00;100363.94;5043755;28;20036;-75
2022/12/21 01:54:12;;;;;;;40.15;18.13;;;;;;;-0.10;100.00;100367.94;5056877;28;20025;-76
2022/12/21 01:56:39;;;;;;;38.75;17.27;;;;;;;-0.06;100.00;100357.44;5056919;28;20099;-75
2022/12/21 01:59:13;;;;;;;37.92;17.02;;;;;;;-0.07;100.00;100347.41;5075060;28;20058;-75
2022/12/21 02:01:38;;;;;;;43.25;17.85;;;;;;;-0.03;100.00;100351.00;5056894;28;20021;-76
2022/12/21 02:04:05;;;;;;;44.95;16.90;;;;;;;0.04;100.00;100355.72;5080402;28;20350;-76
2022/12/21 02:06:41;;;;;;;48.72;19.35;;;;;;;0.07;100.00;100350.06;5083810;28;20028;-76
2022/12/21 02:09:07;;;;;;;46.88;16.42;;;;;;;0.16;100.00;100364.41;5085070;28;20039;-75
2022/12/21 02:11:33;;;;;;;43.28;17.95;;;;;;;0.26;100.00;100365.50;5066709;28;20036;-76
2022/12/21 02:13:58;;;;;;;38.60;17.67;;;;;;;0.34;100.00;100369.78;5062880;28;20089;-75
2022/12/21 02:16:29;;;;;;;40.15;19.02;;;;;;;0.44;100.00;100363.22;5077577;28;20056;-78
2022/12/21 02:19:15;;;;;;;37.97;16.67;;;;;;;0.55;100.00;100361.06;5063926;28;20469;-77
2022/12/21 02:21:50;;;;;;;38.00;15.27;;;;;;;0.66;100.00;100372.19;5067382;28;20422;-76
2022/12/21 02:25:03;;;;;;;39.20;15.68;;;;;;;0.76;100.00;100376.84;5071343;28;20028;-77
2022/12/21 02:27:51;;;;;;;40.25;17.58;;;;;;;0.89;100.00;100374.22;5067996;28;20068;-77
2022/12/21 02:30:23;;;;;;;41.05;16.67;;;;;;;0.95;100.00;100381.78;5074292;28;20033;-77
2022/12/21 02:33:19;;;;;;;44.90;16.17;;;;;;;0.99;100.00;100381.72;5073471;28;20024;-76
2022/12/21 02:36:06;;;;;;;33.92;16.08;;;;;;;0.96;100.00;100363.66;5070532;28;20032;-78
2022/12/21 02:38:46;;;;;;;34.05;16.45;;;;;;;0.93;100.00;100356.09;5071079;28;20065;-77
2022/12/21 02:41:29;;;;;;;42.25;15.05;;;;;;;0.90;100.00;100354.13;5087382;28;20032;-75
2022/12/21 02:44:15;;;;;;;28.60;14.48;;;;;;;0.88;100.00;100336.06;5087795;28;20067;-78
2022/12/21 02:46:57;;;;;;;34.55;16.05;;;;;;;0.93;100.00;100349.66;5080054;28;20166;-76
2022/12/21 02:49:53;;;;;;;29.85;13.95;;;;;;;0.98;100.00;100347.16;5085955;28;20035;-76
2022/12/21 02:52:32;;;;;;;34.45;14.30;;;;;;;0.98;100.00;100341.53;5015324;28;20045;-75
2022/12/21 02:55:00;;;;;;;37.28;14.68;;;;;;;1.02;100.00;100345.06;5078619;28;20035;-78
2022/12/21 02:57:35;;;;;;;32.75;14.75;;;;;;;1.08;100.00;100338.97;5079460;28;20054;-78
2022/12/21 03:00:04;;;;;;;36.47;15.52;;;;;;;1.15;100.00;100336.84;5060923;28;20067;-76
2022/12/21 03:03:47;;;;;;;36.03;13.48;;;;;;;1.22;100.00;100345.16;5047217;28;20028;-78
2022/12/21 03:06:07;;;;;;;36.05;15.00;;;;;;;1.28;100.00;100328.56;5090079;28;20075;-77
2022/12/21 03:09:02;;;;;;;33.28;12.68;;;;;;;1.32;100.00;100332.91;5072707;28;20046;-76
2022/12/21 03:11:42;;;;;;;32.65;14.45;;;;;;;1.32;100.00;100327.28;5061198;28;20071;-75
2022/12/21 03:14:23;;;;;;;31.65;15.43;;;;;;;1.27;100.00;100335.41;5074041;28;20028;-76
2022/12/21 03:16:50;;;;;;;39.92;14.93;;;;;;;1.24;100.00;100342.72;5088900;28;20056;-76
2022/12/21 03:19:25;;;;;;;32.92;15.23;;;;;;;1.24;100.00;100345.53;5067953;28;20081;-75
2022/12/21 03:22:01;;;;;;;31.38;14.57;;;;;;;1.24;100.00;100358.81;5084804;28;20052;-76
2022/12/21 03:24:39;;;;;;;36.47;15.90;;;;;;;1.31;100.00;100350.22;5085148;28;20116;-75
2022/12/21 03:27:13;;;;;;;33.67;14.68;;;;;;;1.35;100.00;100348.16;5070574;28;20055;-76
2022/12/21 03:29:43;;;;;;;36.30;16.02;;;;;;;1.37;100.00;100340.88;5074991;28;20532;-76
2022/12/21 03:32:14;;;;;;;33.60;15.38;;;;;;;1.39;100.00;100344.06;5073153;28;20103;-75
2022/12/21 03:34:43;;;;;;;39.55;16.55;;;;;;;1.43;100.00;100335.53;5060470;28;20024;-76
2022/12/21 03:37:15;;;;;;;34.22;16.20;;;;;;;1.41;100.00;100332.34;5077247;28;20024;-76
2022/12/21 03:39:45;;;;;;;35.30;16.17;;;;;;;1.45;100.00;100330.28;5077062;28;20121;-76
2022/12/21 03:42:10;;;;;;;33.50;14.68;;;;;;;1.50;100.00;100326.19;5075689;28;20032;-75
2022/12/21 03:44:46;;;;;;;36.30;16.00;;;;;;;1.55;100.00;100320.06;5075324;28;20031;-76
2022/12/21 03:47:23;;;;;;;35.58;15.95;;;;;;;1.57;100.00;100309.94;5085537;28;20021;-76
2022/12/21 03:49:54;;;;;;;35.22;16.30;;;;;;;1.60;100.00;100306.25;5062775;28;20044;-76
2022/12/21 03:52:23;;;;;;;35.30;15.60;;;;;;;1.65;100.00;100302.16;5065928;28;20086;-76
2022/12/21 03:54:53;;;;;;;32.70;14.88;;;;;;;1.69;100.00;100300.06;5064051;28;20274;-77
2022/12/21 03:57:19;;;;;;;34.45;16.25;;;;;;;1.66;100.00;100301.72;5064233;28;20071;-77
2022/12/21 03:59:49;;;;;;;30.70;14.50;;;;;;;1.68;100.00;100299.28;5082486;28;20082;-77
2022/12/21 04:02:26;;;;;;;35.88;16.58;;;;;;;1.81;100.00;100296.59;5059417;28;20099;-75
2022/12/21 04:05:12;;;;;;;44.95;17.80;;;;;;;1.76;100.00;100297.09;5083615;28;20468;-75
2022/12/21 04:07:39;;;;;;;43.45;17.55;;;;;;;1.80;100.00;100306.25;5095939;28;20027;-76
2022/12/21 04:10:12;;;;;;;41.00;17.20;;;;;;;1.84;100.00;100290.91;5064365;28;20112;-75
2022/12/21 04:12:38;;;;;;;35.47;15.75;;;;;;;1.84;100.00;100295.75;5089937;28;20015;-75
2022/12/21 04:15:08;;;;;;;35.03;14.65;;;;;;;1.85;100.00;100300.91;5096623;28;20025;-75
2022/12/21 04:17:33;;;;;;;34.25;16.00;;;;;;;1.87;100.00;100295.66;5082763;28;20032;-76
2022/12/21 04:19:59;;;;;;;35.67;18.17;;;;;;;1.94;100.00;100311.63;5059986;28;20027;-76
2022/12/21 04:28:09;;;;;;;41.08;17.00;;;;;;;2.08;100.00;100316.16;5076585;28;20093;-75
2022/12/21 04:30:36;;;;;;;38.67;16.63;;;;;;;2.09;100.00;100312.94;5064440;28;20027;-75
2022/12/21 04:33:02;;;;;;;39.55;16.60;;;;;;;2.07;100.00;100304.09;5069644;28;20020;-76
2022/12/21 04:35:27;;;;;;;36.15;15.38;;;;;;;2.06;100.00;100307.34;5090088;28;20031;-76
2022/12/21 04:37:53;;;;;;;30.83;14.57;;;;;;;2.09;100.00;100293.19;5073780;28;20036;-75
2022/12/21 04:40:18;;;;;;;35.10;16.23;;;;;;;2.15;100.00;100304.72;5092015;28;20457;-76
2022/12/21 04:42:44;;;;;;;38.25;16.73;;;;;;;2.16;100.00;100297.88;5091760;28;20076;-75
2022/12/21 04:45:09;;;;;;;36.35;16.73;;;;;;;2.18;100.00;100290.59;5076577;28;20048;-76
2022/12/21 04:47:34;;;;;;;38.03;16.45;;;;;;;2.20;100.00;100282.47;5076210;28;20021;-76
2022/12/21 04:50:00;;;;;;;38.13;16.17;;;;;;;2.20;100.00;100276.03;5092319;28;20044;-76
2022/12/21 04:52:25;;;;;;;38.55;17.27;;;;;;;2.16;100.00;100262.03;5087424;28;20035;-76
2022/12/21 04:54:51;;;;;;;38.17;16.67;;;;;;;2.18;100.00;100264.41;5087345;28;20035;-76
2022/12/21 04:57:17;;;;;;;32.20;15.43;;;;;;;2.21;100.00;100266.34;5085740;28;20035;-77
2022/12/21 04:59:44;;;;;;;36.03;15.48;;;;;;;2.18;100.00;100265.22;5081650;28;20681;-76
2022/12/21 05:02:10;;;;;;;39.95;15.20;;;;;;;2.19;100.00;100260.38;5065409;28;20029;-76
2022/12/21 05:04:35;;;;;;;32.25;15.40;;;;;;;2.14;100.00;100253.22;5083260;28;20016;-76
2022/12/21 05:07:01;;;;;;;33.92;14.85;;;;;;;2.06;100.00;100259.44;5067828;28;20099;-76
2022/12/21 05:09:26;;;;;;;38.90;15.63;;;;;;;2.02;100.00;100256.72;5085474;28;20097;-76
2022/12/21 05:11:53;;;;;;;34.50;15.02;;;;;;;2.04;100.00;100257.06;5073413;28;20024;-77
2022/12/21 05:14:18;;;;;;;38.10;16.58;;;;;;;1.94;100.00;100244.00;5075035;28;20027;-77
2022/12/21 05:16:44;;;;;;;36.90;15.52;;;;;;;2.06;100.00;100253.81;5092748;28;20036;-77
2022/12/21 05:19:09;;;;;;;33.83;15.73;;;;;;;2.02;100.00;100241.81;5092276;28;20020;-76
2022/12/21 05:21:35;;;;;;;32.72;15.02;;;;;;;2.10;100.00;100248.88;5073896;28;20028;-75
2022/12/21 05:24:00;;;;;;;37.53;15.93;;;;;;;2.10;100.00;100262.97;5058064;28;20024;-76
2022/12/21 05:26:25;;;;;;;35.30;16.27;;;;;;;2.09;100.00;100279.13;5096579;28;20080;-75
2022/12/21 05:28:51;;;;;;;36.72;16.33;;;;;;;2.11;100.00;100273.03;5074597;28;20032;-76
2022/12/21 05:31:17;;;;;;;29.23;15.07;;;;;;;2.14;100.00;100272.16;5095509;28;20088;-77
2022/12/21 05:33:43;;;;;;;34.25;15.35;;;;;;;2.12;100.00;100271.78;5057338;28;20043;-77
2022/12/21 05:36:11;;;;;;;36.90;17.38;;;;;;;2.13;100.00;100268.56;5074197;28;20056;-77
2022/12/21 05:38:37;;;;;;;35.65;14.73;;;;;;;2.14;100.00;100261.69;5074747;28;20044;-76
2022/12/21 05:41:04;;;;;;;34.92;14.88;;;;;;;2.13;100.00;100262.13;5091026;28;20032;-77
2022/12/21 05:43:31;;;;;;;28.75;14.57;;;;;;;2.08;100.00;100260.59;5071797;28;20139;-76
2022/12/21 05:46:02;;;;;;;36.97;14.85;;;;;;;2.03;100.00;100263.94;5062331;28;20436;-76
2022/12/21 05:48:28;;;;;;;33.60;15.85;;;;;;;2.05;100.00;100260.66;5047855;28;20024;-78
2022/12/21 05:50:54;;;;;;;35.92;15.07;;;;;;;2.06;100.00;100254.59;5077086;28;20059;-76
2022/12/21 05:53:19;;;;;;;32.30;14.43;;;;;;;2.11;100.00;100267.38;5061562;28;20024;-75
2022/12/21 05:55:45;;;;;;;32.25;15.65;;;;;;;2.18;100.00;100276.50;5061457;28;20025;-78
2022/12/21 05:58:11;;;;;;;30.83;14.20;;;;;;;2.23;100.00;100278.00;5083246;28;20024;-77
2022/12/21 06:00:37;;;;;;;34.58;13.85;;;;;;;2.26;100.00;100272.28;5033056;28;20032;-79
2022/12/21 06:03:04;;;;;;;30.77;13.80;;;;;;;2.32;100.00;100269.72;5084585;28;20021;-80
2022/12/21 06:05:30;;;;;;;28.10;13.55;;;;;;;2.38;100.00;100268.00;5075544;28;20025;-79
2022/12/21 06:07:56;;;;;;;35.15;14.55;;;;;;;2.45;100.00;100267.00;5057332;28;20028;-76
2022/12/21 06:10:21;;;;;;;37.40;15.52;;;;;;;2.47;100.00;100264.56;5056561;28;20516;-78
2022/12/21 06:12:46;;;;;;;30.60;13.70;;;;;;;2.50;100.00;100270.09;5056092;28;20032;-80
2022/12/21 06:15:14;;;;;;;27.27;14.20;;;;;;;2.50;100.00;100272.13;5073963;28;20416;-76
2022/12/21 06:17:40;;;;;;;30.67;14.23;;;;;;;2.53;100.00;100272.06;5055329;28;20037;-74
2022/12/21 06:20:10;;;;;;;37.60;14.30;;;;;;;2.50;100.00;100255.22;5073625;28;20025;-76
2022/12/21 06:22:35;;;;;;;33.05;17.33;;;;;;;2.51;100.00;100254.00;5073215;28;20039;-75
2022/12/21 06:25:02;;;;;;;32.90;13.95;;;;;;;2.54;100.00;100264.41;5053295;28;20020;-76
2022/12/21 06:27:27;;;;;;;33.63;13.35;;;;;;;2.52;100.00;100270.47;5071795;28;20021;-77
2022/12/21 06:29:53;;;;;;;35.53;15.75;;;;;;;2.53;100.00;100276.91;5053905;28;20023;-78
2022/12/21 06:32:18;;;;;;;34.55;16.00;;;;;;;2.52;100.00;100269.69;5071695;28;20024;-77
2022/12/21 06:34:44;;;;;;;32.15;15.40;;;;;;;2.57;100.00;100274.81;5071632;28;20024;-78
2022/12/21 06:37:09;;;;;;;36.70;14.65;;;;;;;2.57;100.00;100269.97;5072152;28;20025;-79
2022/12/21 06:39:35;;;;;;;27.50;13.30;;;;;;;2.52;100.00;100267.66;5074219;28;20029;-79
2022/12/21 06:42:01;;;;;;;32.10;13.52;;;;;;;2.57;100.00;100272.78;5072025;28;20107;-78
2022/12/21 06:44:27;;;;;;;34.70;16.38;;;;;;;2.56;100.00;100273.22;5071607;28;20036;-78
2022/12/21 06:46:52;;;;;;;32.63;13.93;;;;;;;2.50;100.00;100261.66;5071200;28;20017;-79
2022/12/21 06:49:17;;;;;;;33.90;14.32;;;;;;;2.53;100.00;100274.09;5053635;28;20582;-79
2022/12/21 06:51:43;;;;;;;31.40;14.93;;;;;;;2.42;100.00;100248.97;5071545;28;20077;-79
2022/12/21 06:54:10;;;;;;;34.38;15.95;;;;;;;2.55;100.00;100272.41;5037173;28;20032;-79
2022/12/21 06:56:35;;;;;;;31.95;15.68;;;;;;;2.50;100.00;100260.84;5053578;28;20024;-79
2022/12/21 06:59:01;;;;;;;34.17;14.65;;;;;;;2.44;100.00;100266.22;5038757;28;20137;-80
2022/12/21 07:01:32;;;;;;;31.45;15.43;;;;;;;2.44;100.00;100282.38;5072726;28;20433;-78
2022/12/21 07:03:57;;;;;;;31.92;13.20;;;;;;;2.47;100.00;100285.09;5037284;28;20098;-78
2022/12/21 07:06:25;;;;;;;35.97;14.77;;;;;;;2.47;100.00;100289.94;5053595;28;20465;-78
2022/12/21 07:08:50;;;;;;;32.97;13.75;;;;;;;2.47;100.00;100281.47;5051757;28;20099;-78
2022/12/21 07:11:18;;;;;;;30.92;13.90;;;;;;;2.45;100.00;100267.00;5061923;28;20533;-78
2022/12/21 07:13:45;;;;;;;32.15;13.35;;;;;;;2.55;100.00;100271.63;5041560;28;20028;-76
2022/12/21 07:16:12;;;;;;;26.15;12.57;;;;;;;2.62;100.00;100275.06;5054872;28;20028;-76
2022/12/21 07:18:38;;;;;;;25.30;12.98;;;;;;;2.66;100.00;100270.13;5053690;28;20128;-78
2022/12/21 07:21:06;;;;;;;28.17;12.15;;;;;;;2.72;100.00;100273.22;5053105;28;20120;-74
2022/12/21 07:23:36;;;;;;;23.52;11.90;;;;;;;2.79;100.00;100265.38;5046368;28;20021;-77
2022/12/21 07:26:06;;;;;;;29.27;12.98;;;;;;;2.78;100.00;100263.78;5076054;28;20030;-83
2022/12/21 07:28:31;;;;;;;24.10;12.52;;;;;;;2.84;100.00;100263.25;5055209;28;20115;-77
2022/12/21 07:31:04;;;;;;;23.65;11.77;;;;;;;2.86;100.00;100252.31;5056176;28;20523;-78
2022/12/21 07:33:30;;;;;;;27.85;11.93;;;;;;;2.94;100.00;100259.38;5073405;28;20028;-78
2022/12/21 07:36:00;;;;;;;23.35;11.38;;;;;;;3.01;100.00;100240.25;5038871;28;20056;-78
2022/12/21 07:38:29;;;;;;;22.55;11.45;;;;;;;3.13;100.00;100247.97;5072530;28;20029;-79
2022/12/21 07:40:58;;;;;;;26.00;12.40;;;;;;;3.28;100.00;100242.75;5039089;28;20070;-79
2022/12/21 07:43:24;;;;;;;23.02;12.10;;;;;;;3.39;100.00;100246.06;5055294;28;20020;-80
2022/12/21 07:45:50;;;;;;;27.23;13.25;;;;;;;3.49;100.00;100247.00;5073778;28;20480;-76
2022/12/21 07:48:16;;;;;;;24.05;12.35;;;;;;;3.55;100.00;100245.25;5073221;28;20031;-82
2022/12/21 07:50:41;;;;;;;31.73;13.07;;;;;;;3.63;100.00;100236.09;5073313;28;20045;-80
2022/12/21 07:53:07;;;;;;;27.90;12.45;;;;;;;3.74;100.00;100247.09;5073453;28;20035;-83
2022/12/21 07:55:33;;;;;;;27.83;14.73;;;;;;;3.74;100.00;100235.00;5073479;28;20020;-76
2022/12/21 07:57:58;;;;;;;24.70;13.40;;;;;;;3.87;100.00;100250.00;5073181;28;20035;-76
2022/12/21 08:00:23;;;;;;;22.83;11.70;;;;;;;3.92;100.00;100238.16;5075708;28;20046;-75
2022/12/21 08:02:53;;;;;;;26.73;13.35;;;;;;;3.95;100.00;100249.34;5076361;28;20055;-75
2022/12/21 08:05:19;;;;;;;24.75;12.38;;;;;;;4.01;100.00;100258.88;5077074;28;20060;-76
2022/12/21 08:07:45;;;;;;;28.13;12.85;;;;;;;4.02;100.00;100256.81;5059002;28;20469;-78
2022/12/21 08:10:10;;;;;;;26.45;12.80;;;;;;;4.00;100.00;100257.28;5059258;28;20026;-77
2022/12/21 08:12:36;;;;;;;27.35;11.63;;;;;;;4.03;100.00;100256.38;5058793;28;20496;-79
2022/12/21 08:15:01;;;;;;;27.00;13.52;;;;;;;4.05;100.00;100248.25;5042168;28;20358;-78
2022/12/21 08:17:26;;;;;;;26.45;12.45;;;;;;;4.05;100.00;100250.28;5042208;28;20031;-79
2022/12/21 08:19:52;;;;;;;26.90;12.68;;;;;;;4.05;100.00;100248.25;5059786;28;20103;-78
2022/12/21 08:22:17;;;;;;;26.38;12.82;;;;;;;4.08;100.00;100258.63;5084147;28;20120;-78
2022/12/21 08:24:43;;;;;;;38.88;13.80;;;;;;;4.19;100.00;100266.00;5095474;28;20047;-76
2022/12/21 08:27:08;;;;;;;36.30;13.63;;;;;;;4.21;100.00;100267.16;5058213;28;20461;-79
2022/12/21 08:29:34;;;;;;;29.17;12.63;;;;;;;4.16;100.00;100269.75;5044895;28;20027;-78
2022/12/21 08:31:59;;;;;;;28.05;12.13;;;;;;;4.14;100.00;100261.72;5077800;28;20021;-78
2022/12/21 08:34:24;;;;;;;32.20;13.75;;;;;;;4.10;100.00;100261.03;5077437;28;20028;-80
2022/12/21 08:36:50;;;;;;;30.65;12.55;;;;;;;4.16;100.00;100269.75;5058777;28;20039;-78
2022/12/21 08:39:15;;;;;;;29.08;13.15;;;;;;;4.06;100.00;100263.19;5058330;28;20085;-83
2022/12/21 08:41:41;;;;;;;26.50;13.70;;;;;;;4.13;100.00;100262.16;5059568;28;20474;-82
2022/12/21 08:44:06;;;;;;;26.00;13.10;;;;;;;4.08;100.00;100269.16;5076569;28;20016;-79
2022/12/21 08:46:32;;;;;;;36.17;15.82;;;;;;;3.99;100.00;100252.06;5076218;28;20048;-80
2022/12/21 08:48:58;;;;;;;39.05;17.02;;;;;;;4.08;100.00;100269.94;5057945;28;20504;-80
2022/12/21 08:51:24;;;;;;;36.53;15.63;;;;;;;4.12;100.00;100264.19;5075787;28;20044;-77
2022/12/21 08:53:50;;;;;;;35.35;14.88;;;;;;;4.14;100.00;100252.44;5076182;28;20034;-79
2022/12/21 08:56:15;;;;;;;39.42;16.23;;;;;;;4.16;100.00;100249.97;5075514;28;20017;-80
2022/12/21 08:58:41;;;;;;;42.38;15.63;;;;;;;4.20;100.00;100245.78;5057816;28;20029;-75
2022/12/21 09:01:06;;;;;;;36.88;14.80;;;;;;;4.17;100.00;100251.53;5075611;28;20035;-78
2022/12/21 09:03:32;;;;;;;41.85;17.50;;;;;;;4.23;100.00;100252.56;5040757;28;20025;-78
2022/12/21 09:05:59;;;;;;;39.25;16.98;;;;;;;4.30;100.00;100255.16;5075709;28;20078;-79
2022/12/21 09:08:25;;;;;;;41.88;15.95;;;;;;;4.37;100.00;100240.78;5075394;28;20048;-76
2022/12/21 09:10:59;;;;;;;36.17;16.02;;;;;;;4.53;100.00;100245.56;5077695;28;20020;-81
2022/12/21 09:13:24;;;;;;;36.10;16.08;;;;;;;4.70;100.00;100244.19;5057969;28;20031;-81
2022/12/21 09:15:49;;;;;;;36.40;16.55;;;;;;;4.78;100.00;100237.84;5075178;28;20024;-76
2022/12/21 09:18:15;;;;;;;31.60;14.35;;;;;;;4.85;100.00;100231.16;5077277;28;20109;-88
2022/12/21 09:20:41;;;;;;;30.20;15.25;;;;;;;5.01;100.00;100236.66;5059547;28;20028;-83
2022/12/21 09:23:06;;;;;;;34.05;14.43;;;;;;;5.06;100.00;100236.09;5074615;28;20025;-88
2022/12/21 09:25:32;;;;;;;36.08;15.15;;;;;;;5.12;100.00;100244.78;5079250;28;20017;-87
2022/12/21 09:28:01;;;;;;;37.45;15.75;;;;;;;5.14;100.00;100239.47;5080426;28;20114;-81
2022/12/21 09:30:27;;;;;;;27.45;15.15;;;;;;;5.14;100.00;100240.28;5075477;28;20082;-83
2022/12/21 09:32:53;;;;;;;43.35;15.65;;;;;;;5.20;100.00;100235.59;5057443;28;20355;-80
2022/12/21 09:35:18;;;;;;;37.95;16.42;;;;;;;5.22;100.00;100226.63;5058569;28;20040;-80
2022/12/21 09:37:44;;;;;;;32.40;13.73;;;;;;;5.24;100.00;100230.63;5075785;28;20033;-77
2022/12/21 09:40:11;;;;;;;28.45;13.95;;;;;;;5.24;100.00;100219.28;5075002;28;20150;-77
2022/12/21 09:43:14;;;;;;;30.02;15.13;;;;;;;5.26;100.00;100228.09;5056987;28;20051;-82
2022/12/21 09:46:02;;;;;;;31.55;15.02;;;;;;;5.25;100.00;100225.75;5075271;28;20052;-82
2022/12/21 09:48:30;;;;;;;33.53;15.15;;;;;;;5.21;100.00;100216.56;5075043;28;20047;-82
2022/12/21 09:51:05;;;;;;;32.20;15.23;;;;;;;5.16;100.00;100217.94;5040487;28;20048;-81
2022/12/21 09:53:37;;;;;;;34.72;15.38;;;;;;;5.11;100.00;100223.38;5076414;28;20359;-83
2022/12/21 09:56:04;;;;;;;28.25;14.13;;;;;;;5.12;100.00;100213.66;5078107;28;20025;-81
2022/12/21 09:58:49;;;;;;;30.98;14.82;;;;;;;5.11;100.00;100195.84;5075528;28;20028;-83
2022/12/21 10:01:29;;;;;;;31.05;15.25;;;;;;;5.12;100.00;100196.66;5077892;28;20070;-83
2022/12/21 10:03:58;;;;;;;31.38;16.35;;;;;;;5.15;100.00;100195.75;5076380;28;20032;-83
2022/12/21 10:06:32;;;;;;;32.00;14.77;;;;;;;5.17;100.00;100193.22;5075438;28;20032;-84
2022/12/21 10:09:06;;;;;;;29.48;14.85;;;;;;;5.17;100.00;100207.41;5077012;28;20032;-84
2022/12/21 10:11:38;;;;;;;37.92;16.80;;;;;;;5.05;100.00;100222.41;5059256;28;20024;-84
2022/12/21 10:14:14;;;;;;;37.95;17.08;;;;;;;4.97;100.00;100232.38;5075266;28;20040;-84
2022/12/21 10:17:01;;;;;;;45.40;20.23;;;;;;;4.85;100.00;100228.34;5056325;28;20028;-83
2022/12/21 10:20:06;;;;;;;48.67;21.17;;;;;;;4.68;100.00;100210.69;5074639;28;20032;-86
2022/12/21 10:22:33;;;;;;;50.55;21.48;;;;;;;4.57;100.00;100204.56;5042287;28;20071;-83
2022/12/21 10:25:02;;;;;;;45.65;21.33;;;;;;;4.58;100.00;100197.69;5056968;28;20036;-83
2022/12/21 10:27:43;;;;;;;51.75;23.38;;;;;;;4.66;100.00;100195.41;5057023;28;20033;-83
2022/12/21 10:30:12;;;;;;;48.97;23.10;;;;;;;4.75;100.00;100196.31;5040389;28;20064;-84
2022/12/21 10:32:38;;;;;;;45.25;21.50;;;;;;;4.81;100.00;100199.34;5057199;28;20039;-84
2022/12/21 10:35:19;;;;;;;50.75;22.80;;;;;;;4.88;100.00;100199.09;5040155;28;20029;-85
2022/12/21 10:37:55;;;;;;;116.07;46.73;;;;;;;4.94;100.00;100198.06;5041461;28;20032;-85
2022/12/21 10:40:23;;;;;;;52.38;24.27;;;;;;;4.95;100.00;100190.38;5057992;28;20036;-84
2022/12/21 10:42:50;;;;;;;52.03;22.45;;;;;;;4.90;100.00;100205.91;5057666;28;20024;-84
2022/12/21 10:45:18;;;;;;;55.03;24.00;;;;;;;4.77;100.00;100201.50;5057343;28;20036;-84
2022/12/21 10:47:44;;;;;;;58.50;24.17;;;;;;;4.69;100.00;100205.81;5075210;28;20095;-86
2022/12/21 10:50:25;;;;;;;58.95;23.48;;;;;;;4.63;100.00;100193.47;5056577;28;20071;-85
2022/12/21 10:52:58;;;;;;;47.00;21.50;;;;;;;4.53;100.00;100192.59;5040133;28;20029;-83
2022/12/21 10:55:26;;;;;;;47.63;21.55;;;;;;;4.46;100.00;100198.50;5075297;28;20497;-86
2022/12/21 10:58:04;;;;;;;46.95;20.83;;;;;;;4.34;100.00;100188.75;5060377;28;20029;-87
2022/12/21 11:00:35;;;;;;;43.83;18.85;;;;;;;4.33;100.00;100203.34;5060560;28;20312;-86
2022/12/21 11:03:03;;;;;;;61.00;22.85;;;;;;;4.30;100.00;100195.78;5058705;28;20086;-83
2022/12/21 11:05:41;;;;;;;43.80;19.80;;;;;;;4.28;100.00;100201.88;5073750;28;20036;-83
2022/12/21 11:08:10;;;;;;;46.58;19.83;;;;;;;4.25;100.00;100190.69;5038491;28;20433;-82
2022/12/21 11:10:36;;;;;;;48.03;21.08;;;;;;;4.21;100.00;100196.47;5074556;28;20362;-84
2022/12/21 11:13:06;;;;;;;45.85;19.73;;;;;;;4.21;100.00;100190.00;5073721;28;20036;-84
2022/12/21 11:15:31;;;;;;;36.88;17.85;;;;;;;4.22;100.00;100188.75;5073821;28;20025;-82
2022/12/21 11:17:57;;;;;;;41.10;18.48;;;;;;;4.27;100.00;100188.19;5039177;28;20258;-83
2022/12/21 11:20:23;;;;;;;43.53;19.70;;;;;;;4.26;100.00;100187.41;5073724;28;20036;-84
2022/12/21 11:22:51;;;;;;;44.28;19.58;;;;;;;4.25;100.00;100174.50;5073647;28;20030;-83
2022/12/21 11:25:19;;;;;;;43.08;19.90;;;;;;;4.26;100.00;100173.28;5056721;28;20028;-87